createdAt,value
2023-04-27T00:02:32.894Z,10
2023-04-27T00:07:49.171Z,8
2023-04-27T00:13:05.531Z,10
2023-04-27T00:18:21.909Z,10
2023-04-27T00:23:38.353Z,9
2023-04-27T00:28:54.719Z,10
2023-04-27T00:34:11.091Z,8
2023-04-27T00:39:27.459Z,9
2023-04-27T00:44:43.817Z,9
2023-04-27T00:50:00.200Z,8
2023-04-27T00:55:16.566Z,7
2023-04-27T01:00:32.932Z,7
2023-04-27T01:05:49.264Z,4
2023-04-27T01:11:05.626Z,3
2023-04-27T01:16:22.072Z,4
2023-04-27T01:21:38.336Z,4
2023-04-27T01:26:54.701Z,4
2023-04-27T01:32:11.050Z,4
2023-04-27T01:37:28.133Z,4
2023-04-27T01:42:44.500Z,4
2023-04-27T01:48:00.930Z,4
2023-04-27T01:53:17.231Z,4
2023-04-27T01:58:33.619Z,4
2023-04-27T02:03:50.103Z,4
2023-04-27T02:09:06.327Z,6
2023-04-27T02:14:22.681Z,9
2023-04-27T02:19:39.060Z,5
2023-04-27T02:24:55.385Z,6
2023-04-27T02:30:11.840Z,6
2023-04-27T02:35:28.112Z,5
2023-04-27T02:40:44.490Z,4
2023-04-27T02:46:00.827Z,4
2023-04-27T02:51:17.198Z,5
2023-04-27T02:56:33.572Z,5
2023-04-27T03:01:49.958Z,4
2023-04-27T03:07:06.291Z,4
2023-04-27T03:12:22.623Z,5
2023-04-27T03:17:39.025Z,6
2023-04-27T03:22:55.387Z,7
2023-04-27T03:28:11.752Z,7
2023-04-27T03:33:28.127Z,5
2023-04-27T03:38:44.475Z,4
2023-04-27T03:44:00.865Z,6
2023-04-27T03:49:17.233Z,6
2023-04-27T03:54:33.617Z,7
2023-04-27T03:59:49.958Z,6
2023-04-27T04:05:06.383Z,6
2023-04-27T04:10:22.678Z,7
2023-04-27T04:15:39.062Z,6
2023-04-27T04:20:55.402Z,7
2023-04-27T04:26:11.740Z,6
2023-04-27T04:31:28.161Z,15
2023-04-27T04:36:44.471Z,14
2023-04-27T04:42:00.860Z,9
2023-04-27T04:47:17.223Z,10
2023-04-27T04:52:33.606Z,17
2023-04-27T04:57:49.986Z,9
2023-04-27T05:03:06.534Z,8
2023-04-27T05:08:22.724Z,9
2023-04-27T05:13:39.060Z,7
2023-04-27T05:18:55.433Z,8
2023-04-27T05:24:11.815Z,11
2023-04-27T05:29:28.165Z,9
2023-04-27T05:34:45.378Z,12
2023-04-27T05:40:00.920Z,5
2023-04-27T05:45:17.260Z,5
2023-04-27T05:50:33.658Z,11
2023-04-27T05:55:50.038Z,20
2023-04-27T06:01:06.446Z,8
2023-04-27T06:06:22.801Z,9
2023-04-27T06:11:39.170Z,7
2023-04-27T06:16:55.515Z,7
2023-04-27T06:22:11.893Z,6
2023-04-27T06:27:28.225Z,6
2023-04-27T06:32:44.640Z,7
2023-04-27T06:38:00.975Z,7
2023-04-27T06:43:17.310Z,5
2023-04-27T06:48:33.697Z,7
2023-04-27T06:53:50.033Z,9
2023-04-27T06:59:06.403Z,8
2023-04-27T07:04:23.006Z,7
2023-04-27T07:09:39.126Z,5
2023-04-27T07:14:55.469Z,5
2023-04-27T07:20:11.823Z,5
2023-04-27T07:25:28.156Z,7
2023-04-27T07:30:44.507Z,6
2023-04-27T07:36:00.916Z,5
2023-04-27T07:41:17.223Z,5
2023-04-27T07:46:33.537Z,5
2023-04-27T07:51:49.908Z,7
2023-04-27T07:57:06.238Z,5
2023-04-27T08:02:22.826Z,6
2023-04-27T08:07:44.457Z,6
2023-04-27T08:12:55.280Z,6
2023-04-27T08:18:11.648Z,5
2023-04-27T08:23:27.988Z,6
2023-04-27T08:28:44.331Z,5
2023-04-27T08:34:00.654Z,6
2023-04-27T08:39:17.025Z,6
2023-04-27T08:44:33.351Z,7
2023-04-27T08:49:49.698Z,6
2023-04-27T08:55:06.051Z,7
2023-04-27T09:00:22.875Z,6
2023-04-27T09:05:44.178Z,6
2023-04-27T09:10:55.080Z,7
2023-04-27T09:16:11.462Z,7
2023-04-27T09:21:27.801Z,5
2023-04-27T09:26:44.109Z,6
2023-04-27T09:32:00.507Z,7
2023-04-27T09:37:16.780Z,6
2023-04-27T09:42:33.151Z,5
2023-04-27T09:47:49.541Z,6
2023-04-27T09:53:05.822Z,6
2023-04-27T09:58:22.160Z,4
2023-04-27T10:03:38.667Z,5
2023-04-27T10:08:54.811Z,4
2023-04-27T10:14:11.270Z,5
2023-04-27T10:19:27.595Z,4
2023-04-27T10:24:43.934Z,3
2023-04-27T10:30:00.257Z,4
2023-04-27T10:35:16.600Z,3
2023-04-27T10:40:32.922Z,3
2023-04-27T10:45:49.275Z,3
2023-04-27T10:51:05.571Z,2
2023-04-27T10:56:21.882Z,2
2023-04-27T11:01:38.416Z,1
2023-04-27T11:06:54.469Z,1
2023-04-27T11:12:10.781Z,0
2023-04-27T11:17:27.129Z,0
2023-04-27T11:22:43.365Z,1
2023-04-27T11:27:59.594Z,0
2023-04-27T11:33:15.883Z,0
2023-04-27T11:38:32.971Z,0
2023-04-27T11:43:49.216Z,2
2023-04-27T11:49:05.434Z,1
2023-04-27T11:54:21.659Z,1
2023-04-27T11:59:38.669Z,0
2023-04-27T12:04:55.211Z,3
2023-04-27T12:10:11.212Z,1
2023-04-27T12:15:27.466Z,2
2023-04-27T12:20:43.735Z,1
2023-04-27T12:26:00.225Z,1
2023-04-27T12:31:16.564Z,1
2023-04-27T12:36:32.811Z,0
2023-04-27T12:41:48.995Z,0
2023-04-27T12:47:05.264Z,0
2023-04-27T12:52:21.557Z,0
2023-04-27T12:57:37.795Z,2
2023-04-27T13:02:54.212Z,0
2023-04-27T13:08:10.304Z,0
2023-04-27T13:13:26.556Z,0
2023-04-27T13:18:42.816Z,0
2023-04-27T13:24:00.356Z,0
2023-04-27T13:29:15.374Z,0
2023-04-27T13:34:31.650Z,0
2023-04-27T13:39:47.970Z,1
2023-04-27T13:45:04.232Z,0
2023-04-27T13:50:20.534Z,0
2023-04-27T13:55:36.829Z,0
2023-04-27T14:00:54.269Z,1
2023-04-27T14:06:10.465Z,0
2023-04-27T14:11:26.799Z,1
2023-04-27T14:16:43.109Z,1
2023-04-27T14:21:59.373Z,1
2023-04-27T14:27:15.681Z,2
2023-04-27T14:32:32.053Z,1
2023-04-27T14:37:48.277Z,1
2023-04-27T14:43:04.576Z,2
2023-04-27T14:48:20.888Z,2
2023-04-27T14:53:37.198Z,2
2023-04-27T14:58:53.519Z,8
2023-04-27T15:04:10.019Z,22
2023-04-27T15:09:26.229Z,7
2023-04-27T15:14:42.556Z,1
2023-04-27T15:19:58.903Z,7
2023-04-27T15:25:15.203Z,1
2023-04-27T15:30:31.550Z,2
2023-04-27T15:35:47.870Z,3
2023-04-27T15:41:04.240Z,2
2023-04-27T15:46:20.590Z,0
2023-04-27T15:51:36.908Z,1
2023-04-27T15:56:53.248Z,2
2023-04-27T16:02:09.622Z,4
2023-04-27T16:07:26.356Z,1
2023-04-27T16:12:42.335Z,2
2023-04-27T16:17:58.641Z,0
2023-04-27T16:23:14.934Z,6
2023-04-27T16:28:31.274Z,2
2023-04-27T16:33:47.602Z,1
2023-04-27T16:39:03.936Z,1
2023-04-27T16:44:20.268Z,1
2023-04-27T16:49:36.588Z,0
2023-04-27T16:54:52.924Z,0
2023-04-27T17:00:09.252Z,0
2023-04-27T17:05:25.594Z,1
2023-04-27T17:10:41.904Z,1
2023-04-27T17:15:58.265Z,2
2023-04-27T17:21:14.609Z,4
2023-04-27T17:26:30.921Z,2
2023-04-27T17:31:47.321Z,2
2023-04-27T17:37:03.624Z,5
2023-04-27T17:42:19.973Z,2
2023-04-27T17:47:36.307Z,3
2023-04-27T17:52:52.665Z,2
2023-04-27T17:58:08.990Z,2
2023-04-27T18:03:25.534Z,1
2023-04-27T18:08:41.992Z,3
2023-04-27T18:13:57.966Z,1
2023-04-27T18:19:14.522Z,2
2023-04-27T18:24:30.659Z,4
2023-04-27T18:29:47.029Z,11
2023-04-27T18:35:03.368Z,4
2023-04-27T18:40:19.728Z,5
2023-04-27T18:45:36.097Z,6
2023-04-27T18:50:52.421Z,7
2023-04-27T18:56:09.519Z,14
2023-04-27T19:01:25.164Z,13
2023-04-27T19:06:41.526Z,14
2023-04-27T19:17:14.355Z,31
2023-04-27T19:22:30.695Z,32
2023-04-27T19:27:47.631Z,32
2023-04-27T19:33:04.700Z,49
2023-04-27T19:38:21.512Z,66
2023-04-27T19:43:38.546Z,54
2023-04-27T19:48:55.666Z,72
2023-04-27T19:54:12.518Z,54
2023-04-27T19:59:29.773Z,66
2023-04-27T20:04:46.286Z,76
2023-04-27T20:10:02.316Z,89
2023-04-27T20:15:19.189Z,84
2023-04-27T20:20:36.231Z,76
2023-04-27T20:25:52.868Z,75
2023-04-27T20:31:09.356Z,70
2023-04-27T20:36:25.815Z,61
2023-04-27T20:41:43.550Z,64
2023-04-27T20:47:00.629Z,60
2023-04-27T20:52:17.427Z,61
2023-04-27T20:57:33.624Z,55
2023-04-27T21:02:50.823Z,56
2023-04-27T21:08:07.194Z,49
2023-04-27T21:13:23.965Z,49
2023-04-27T21:18:40.408Z,45
2023-04-27T21:24:06.667Z,44
2023-04-27T21:29:12.986Z,40
2023-04-27T21:34:29.744Z,38
2023-04-27T21:39:46.163Z,38
2023-04-27T21:45:03.072Z,45
2023-04-27T21:50:20.073Z,44
2023-04-27T21:55:37.048Z,42
2023-04-27T22:00:53.538Z,38
2023-04-27T22:06:09.935Z,37
2023-04-27T22:11:26.521Z,38
2023-04-27T22:16:42.940Z,37
2023-04-27T22:21:59.379Z,30
2023-04-27T22:27:15.716Z,30
2023-04-27T22:32:32.170Z,24
2023-04-27T22:37:48.928Z,27
2023-04-27T22:43:05.318Z,23
2023-04-27T22:48:21.688Z,20
2023-04-27T22:53:38.082Z,25
2023-04-27T22:58:54.473Z,25
2023-04-27T23:04:11.634Z,24
2023-04-27T23:09:28.196Z,24
2023-04-27T23:14:44.950Z,34
2023-04-27T23:20:01.086Z,28
2023-04-27T23:25:18.055Z,30
2023-04-27T23:30:34.445Z,19
2023-04-27T23:35:50.848Z,26
2023-04-27T23:41:07.306Z,19
2023-04-27T23:46:24.327Z,21
2023-04-27T23:51:40.680Z,20
2023-04-27T23:56:57.072Z,20
